sensor_id;sensor_type;location;lat;lon;timestamp;temperature;humidity
46862;DHT22;32596;53.170;8.224;2023-09-18T05:27:38;23.60;68.90
46862;DHT22;32596;53.170;8.224;2023-09-18T05:30:19;23.30;64.80
46862;DHT22;32596;53.170;8.224;2023-09-18T05:32:48;23.30;64.60
46862;DHT22;32596;53.170;8.224;2023-09-18T05:35:14;23.40;64.60
46862;DHT22;32596;53.170;8.224;2023-09-18T05:37:41;23.50;64.00
46862;DHT22;32596;53.170;8.224;2023-09-18T05:40:08;23.60;63.80
46862;DHT22;32596;53.170;8.224;2023-09-18T05:42:43;23.70;63.20
46862;DHT22;32596;53.170;8.224;2023-09-18T05:45:10;23.80;62.90
46862;DHT22;32596;53.170;8.224;2023-09-18T05:47:36;23.90;62.50
46862;DHT22;32596;53.170;8.224;2023-09-18T05:50:03;24.00;61.90
46862;DHT22;32596;53.170;8.224;2023-09-18T05:52:32;24.10;61.80
46862;DHT22;32596;53.170;8.224;2023-09-18T05:54:58;24.20;61.30
46862;DHT22;32596;53.170;8.224;2023-09-18T05:57:24;24.30;61.00
46862;DHT22;32596;53.170;8.224;2023-09-18T05:59:49;24.30;60.70
46862;DHT22;32596;53.170;8.224;2023-09-18T06:02:15;24.40;60.60
46862;DHT22;32596;53.170;8.224;2023-09-18T06:04:42;24.40;60.60
46862;DHT22;32596;53.170;8.224;2023-09-18T06:07:07;24.40;60.40
46862;DHT22;32596;53.170;8.224;2023-09-18T06:09:33;24.50;60.20
46862;DHT22;32596;53.170;8.224;2023-09-18T06:12:00;24.50;60.10
46862;DHT22;32596;53.170;8.224;2023-09-18T06:14:25;24.60;59.80
46862;DHT22;32596;53.170;8.224;2023-09-18T06:16:51;24.70;59.80
46862;DHT22;32596;53.170;8.224;2023-09-18T06:19:17;24.70;59.60
46862;DHT22;32596;53.170;8.224;2023-09-18T06:21:43;24.70;59.90
46862;DHT22;32596;53.170;8.224;2023-09-18T06:24:09;24.70;59.80
46862;DHT22;32596;53.170;8.224;2023-09-18T06:26:35;24.70;59.80
46862;DHT22;32596;53.170;8.224;2023-09-18T06:29:01;24.80;59.70
46862;DHT22;32596;53.170;8.224;2023-09-18T06:31:27;24.80;59.60
46862;DHT22;32596;53.170;8.224;2023-09-18T06:33:53;24.80;59.40
46862;DHT22;32596;53.170;8.224;2023-09-18T06:36:19;24.80;59.30
46862;DHT22;32596;53.170;8.224;2023-09-18T06:38:44;24.80;59.90
46862;DHT22;32596;53.170;8.224;2023-09-18T06:41:10;24.90;59.40
46862;DHT22;32596;53.170;8.224;2023-09-18T06:43:35;24.80;59.30
46862;DHT22;32596;53.170;8.224;2023-09-18T06:46:01;24.90;59.40
46862;DHT22;32596;53.170;8.224;2023-09-18T06:48:26;24.90;59.30
46862;DHT22;32596;53.170;8.224;2023-09-18T06:50:52;24.90;59.40
46862;DHT22;32596;53.170;8.224;2023-09-18T06:53:18;24.90;59.30
46862;DHT22;32596;53.170;8.224;2023-09-18T06:55:43;24.90;59.40
46862;DHT22;32596;53.170;8.224;2023-09-18T06:58:09;24.80;59.40
46862;DHT22;32596;53.170;8.224;2023-09-18T07:00:34;24.90;59.60
46862;DHT22;32596;53.170;8.224;2023-09-18T07:03:00;24.90;59.40
46862;DHT22;32596;53.170;8.224;2023-09-18T07:05:25;24.90;59.20
46862;DHT22;32596;53.170;8.224;2023-09-18T07:07:51;24.90;59.10
46862;DHT22;32596;53.170;8.224;2023-09-18T07:10:16;24.90;59.10
46862;DHT22;32596;53.170;8.224;2023-09-18T07:12:42;24.90;59.10
46862;DHT22;32596;53.170;8.224;2023-09-18T07:15:08;24.90;58.90
46862;DHT22;32596;53.170;8.224;2023-09-18T07:17:33;24.90;58.90
46862;DHT22;32596;53.170;8.224;2023-09-18T07:20:00;24.90;58.90
46862;DHT22;32596;53.170;8.224;2023-09-18T07:22:26;24.90;58.80
46862;DHT22;32596;53.170;8.224;2023-09-18T07:24:52;24.90;58.80
46862;DHT22;32596;53.170;8.224;2023-09-18T07:27:17;24.90;58.80
46862;DHT22;32596;53.170;8.224;2023-09-18T07:29:43;24.90;58.70
46862;DHT22;32596;53.170;8.224;2023-09-18T07:32:08;24.80;58.60
46862;DHT22;32596;53.170;8.224;2023-09-18T07:34:35;24.80;58.60
46862;DHT22;32596;53.170;8.224;2023-09-18T07:37:00;24.90;58.80
46862;DHT22;32596;53.170;8.224;2023-09-18T07:39:26;24.90;58.80
46862;DHT22;32596;53.170;8.224;2023-09-18T07:41:52;24.90;58.80
46862;DHT22;32596;53.170;8.224;2023-09-18T07:44:21;24.90;58.70
46862;DHT22;32596;53.170;8.224;2023-09-18T07:46:46;25.00;58.80
46862;DHT22;32596;53.170;8.224;2023-09-18T07:49:13;25.00;58.80
46862;DHT22;32596;53.170;8.224;2023-09-18T07:51:39;25.00;58.70
46862;DHT22;32596;53.170;8.224;2023-09-18T07:54:06;25.00;59.30
46862;DHT22;32596;53.170;8.224;2023-09-18T07:56:32;24.80;60.30
46862;DHT22;32596;53.170;8.224;2023-09-18T07:58:59;24.80;60.00
46862;DHT22;32596;53.170;8.224;2023-09-18T08:01:25;24.90;60.30
46862;DHT22;32596;53.170;8.224;2023-09-18T08:03:51;24.90;60.10
46862;DHT22;32596;53.170;8.224;2023-09-18T08:06:16;25.00;60.10
46862;DHT22;32596;53.170;8.224;2023-09-18T08:08:44;25.00;59.80
46862;DHT22;32596;53.170;8.224;2023-09-18T08:11:10;25.00;59.60
46862;DHT22;32596;53.170;8.224;2023-09-18T08:13:36;25.00;59.30
46862;DHT22;32596;53.170;8.224;2023-09-18T08:16:05;25.00;59.20
46862;DHT22;32596;53.170;8.224;2023-09-18T08:18:31;25.00;59.00
46862;DHT22;32596;53.170;8.224;2023-09-18T08:20:57;25.00;59.00
46862;DHT22;32596;53.170;8.224;2023-09-18T08:23:24;25.00;59.00
46862;DHT22;32596;53.170;8.224;2023-09-18T08:25:50;25.00;58.80
46862;DHT22;32596;53.170;8.224;2023-09-18T08:28:17;25.00;58.70
46862;DHT22;32596;53.170;8.224;2023-09-18T08:30:42;25.00;58.60
46862;DHT22;32596;53.170;8.224;2023-09-18T08:33:13;25.00;58.40
46862;DHT22;32596;53.170;8.224;2023-09-18T08:35:38;25.00;58.90
46862;DHT22;32596;53.170;8.224;2023-09-18T08:38:05;25.00;58.90
46862;DHT22;32596;53.170;8.224;2023-09-18T08:40:30;25.00;59.00
46862;DHT22;32596;53.170;8.224;2023-09-18T08:42:56;25.00;59.20
46862;DHT22;32596;53.170;8.224;2023-09-18T08:48:00;25.10;58.90
46862;DHT22;32596;53.170;8.224;2023-09-18T08:50:26;25.10;58.90
46862;DHT22;32596;53.170;8.224;2023-09-18T08:52:52;25.10;58.80
46862;DHT22;32596;53.170;8.224;2023-09-18T08:55:18;25.10;59.00
46862;DHT22;32596;53.170;8.224;2023-09-18T08:57:44;25.10;58.90
46862;DHT22;32596;53.170;8.224;2023-09-18T09:00:11;25.10;59.10
46862;DHT22;32596;53.170;8.224;2023-09-18T09:02:45;25.10;59.20
46862;DHT22;32596;53.170;8.224;2023-09-18T09:05:11;25.10;59.30
46862;DHT22;32596;53.170;8.224;2023-09-18T09:07:37;25.10;59.20
46862;DHT22;32596;53.170;8.224;2023-09-18T09:10:03;25.10;59.20
46862;DHT22;32596;53.170;8.224;2023-09-18T09:12:55;25.10;59.00
46862;DHT22;32596;53.170;8.224;2023-09-18T09:15:25;25.20;59.10
46862;DHT22;32596;53.170;8.224;2023-09-18T09:17:52;25.20;59.10
46862;DHT22;32596;53.170;8.224;2023-09-18T09:20:26;25.20;59.30
46862;DHT22;32596;53.170;8.224;2023-09-18T09:22:51;25.20;59.40
46862;DHT22;32596;53.170;8.224;2023-09-18T09:27:47;25.20;59.10
46862;DHT22;32596;53.170;8.224;2023-09-18T09:30:22;25.20;59.00
46862;DHT22;32596;53.170;8.224;2023-09-18T09:32:50;25.30;59.20
46862;DHT22;32596;53.170;8.224;2023-09-18T09:35:30;25.30;59.10
46862;DHT22;32596;53.170;8.224;2023-09-18T09:38:00;25.30;59.00
46862;DHT22;32596;53.170;8.224;2023-09-18T09:40:27;25.30;59.10
46862;DHT22;32596;53.170;8.224;2023-09-18T09:42:55;25.30;59.00
46862;DHT22;32596;53.170;8.224;2023-09-18T09:45:29;25.30;58.90
46862;DHT22;32596;53.170;8.224;2023-09-18T09:47:56;25.40;59.00
46862;DHT22;32596;53.170;8.224;2023-09-18T09:50:22;25.40;58.90
46862;DHT22;32596;53.170;8.224;2023-09-18T09:52:50;25.40;58.90
46862;DHT22;32596;53.170;8.224;2023-09-18T09:57:58;25.40;59.00
46862;DHT22;32596;53.170;8.224;2023-09-18T10:00:32;25.40;59.00
46862;DHT22;32596;53.170;8.224;2023-09-18T10:03:06;25.40;59.00
46862;DHT22;32596;53.170;8.224;2023-09-18T10:05:36;25.40;59.00
46862;DHT22;32596;53.170;8.224;2023-09-18T10:08:08;25.40;58.70
46862;DHT22;32596;53.170;8.224;2023-09-18T10:10:37;25.40;58.60
46862;DHT22;32596;53.170;8.224;2023-09-18T10:13:12;25.40;58.60
46862;DHT22;32596;53.170;8.224;2023-09-18T10:15:38;25.40;58.70
46862;DHT22;32596;53.170;8.224;2023-09-18T10:18:17;25.40;58.60
46862;DHT22;32596;53.170;8.224;2023-09-18T10:20:43;25.40;58.70
46862;DHT22;32596;53.170;8.224;2023-09-18T10:26:00;25.40;58.80
46862;DHT22;32596;53.170;8.224;2023-09-18T10:28:29;25.40;58.70
46862;DHT22;32596;53.170;8.224;2023-09-18T10:30:57;25.40;58.80
46862;DHT22;32596;53.170;8.224;2023-09-18T10:33:23;25.30;59.10
46862;DHT22;32596;53.170;8.224;2023-09-18T10:35:51;25.30;59.20
46862;DHT22;32596;53.170;8.224;2023-09-18T10:38:18;25.30;59.20
46862;DHT22;32596;53.170;8.224;2023-09-18T10:40:46;25.40;59.10
46862;DHT22;32596;53.170;8.224;2023-09-18T10:43:15;25.40;59.10
46862;DHT22;32596;53.170;8.224;2023-09-18T10:45:42;25.40;59.20
46862;DHT22;32596;53.170;8.224;2023-09-18T10:48:09;25.40;59.20
46862;DHT22;32596;53.170;8.224;2023-09-18T10:50:35;25.40;58.90
46862;DHT22;32596;53.170;8.224;2023-09-18T10:53:02;25.40;59.00
46862;DHT22;32596;53.170;8.224;2023-09-18T10:55:28;25.50;59.00
46862;DHT22;32596;53.170;8.224;2023-09-18T10:57:55;25.50;58.90
46862;DHT22;32596;53.170;8.224;2023-09-18T11:00:25;25.50;59.00
46862;DHT22;32596;53.170;8.224;2023-09-18T11:05:38;25.50;59.10
46862;DHT22;32596;53.170;8.224;2023-09-18T11:08:31;25.50;59.20
46862;DHT22;32596;53.170;8.224;2023-09-18T11:11:07;25.60;59.20
46862;DHT22;32596;53.170;8.224;2023-09-18T11:13:40;25.60;59.10
46862;DHT22;32596;53.170;8.224;2023-09-18T11:18:40;25.60;59.20
46862;DHT22;32596;53.170;8.224;2023-09-18T11:21:10;25.60;59.30
46862;DHT22;32596;53.170;8.224;2023-09-18T11:23:37;25.60;59.10
46862;DHT22;32596;53.170;8.224;2023-09-18T11:26:04;25.70;59.00
46862;DHT22;32596;53.170;8.224;2023-09-18T11:28:32;25.70;59.10
46862;DHT22;32596;53.170;8.224;2023-09-18T11:30:58;25.80;59.30
46862;DHT22;32596;53.170;8.224;2023-09-18T11:33:38;25.80;59.20
46862;DHT22;32596;53.170;8.224;2023-09-18T11:38:35;25.60;59.80
46862;DHT22;32596;53.170;8.224;2023-09-18T11:41:18;25.70;59.80
46862;DHT22;32596;53.170;8.224;2023-09-18T11:43:45;25.70;59.80
46862;DHT22;32596;53.170;8.224;2023-09-18T11:46:11;25.80;59.70
46862;DHT22;32596;53.170;8.224;2023-09-18T11:48:38;25.80;60.10
46862;DHT22;32596;53.170;8.224;2023-09-18T11:51:07;25.80;59.70
46862;DHT22;32596;53.170;8.224;2023-09-18T11:53:39;25.80;59.80
46862;DHT22;32596;53.170;8.224;2023-09-18T11:56:11;25.80;59.70
46862;DHT22;32596;53.170;8.224;2023-09-18T11:58:52;25.90;59.60
46862;DHT22;32596;53.170;8.224;2023-09-18T12:01:20;25.90;59.50
46862;DHT22;32596;53.170;8.224;2023-09-18T12:03:45;25.90;59.50
46862;DHT22;32596;53.170;8.224;2023-09-18T12:06:13;25.90;59.50
46862;DHT22;32596;53.170;8.224;2023-09-18T12:08:39;25.90;59.60
46862;DHT22;32596;53.170;8.224;2023-09-18T12:11:06;26.00;59.60
46862;DHT22;32596;53.170;8.224;2023-09-18T12:13:32;26.00;59.50
46862;DHT22;32596;53.170;8.224;2023-09-18T12:16:02;26.00;59.40
46862;DHT22;32596;53.170;8.224;2023-09-18T12:18:30;26.00;59.40
46862;DHT22;32596;53.170;8.224;2023-09-18T12:20:56;26.10;59.30
46862;DHT22;32596;53.170;8.224;2023-09-18T12:23:24;26.10;59.30
46862;DHT22;32596;53.170;8.224;2023-09-18T12:25:56;26.10;59.20
46862;DHT22;32596;53.170;8.224;2023-09-18T12:28:22;26.20;59.20
46862;DHT22;32596;53.170;8.224;2023-09-18T12:30:47;26.20;59.20
46862;DHT22;32596;53.170;8.224;2023-09-18T12:33:16;26.20;59.40
46862;DHT22;32596;53.170;8.224;2023-09-18T12:35:42;26.20;59.40
46862;DHT22;32596;53.170;8.224;2023-09-18T12:38:18;26.20;59.40
46862;DHT22;32596;53.170;8.224;2023-09-18T12:40:52;26.30;59.40
46862;DHT22;32596;53.170;8.224;2023-09-18T12:43:19;26.30;59.40
46862;DHT22;32596;53.170;8.224;2023-09-18T12:45:48;26.30;59.40
46862;DHT22;32596;53.170;8.224;2023-09-18T12:48:15;26.30;59.40
46862;DHT22;32596;53.170;8.224;2023-09-18T12:50:41;26.40;59.30
46862;DHT22;32596;53.170;8.224;2023-09-18T12:53:11;26.40;59.30
46862;DHT22;32596;53.170;8.224;2023-09-18T12:55:37;26.40;59.30
46862;DHT22;32596;53.170;8.224;2023-09-18T12:58:03;26.40;59.30
46862;DHT22;32596;53.170;8.224;2023-09-18T13:00:33;26.50;59.50
46862;DHT22;32596;53.170;8.224;2023-09-18T13:02:59;26.50;59.50
46862;DHT22;32596;53.170;8.224;2023-09-18T13:05:25;26.50;59.40
46862;DHT22;32596;53.170;8.224;2023-09-18T13:07:51;26.50;59.40
46862;DHT22;32596;53.170;8.224;2023-09-18T13:10:18;26.60;59.40
46862;DHT22;32596;53.170;8.224;2023-09-18T13:12:49;26.60;59.50
46862;DHT22;32596;53.170;8.224;2023-09-18T13:15:32;26.60;59.40
46862;DHT22;32596;53.170;8.224;2023-09-18T13:18:00;26.60;59.50
46862;DHT22;32596;53.170;8.224;2023-09-18T13:20:27;26.70;59.70
46862;DHT22;32596;53.170;8.224;2023-09-18T13:22:59;26.70;59.40
